Time;durP1;ratioP1;P1;durP2;ratioP2;P2;SDS_P1;SDS_P2;PMS_P1;PMS_P2;Temp;Humidity;BMP_temperature;BMP_pressure;BME280_temperature;BME280_humidity;BME280_pressure;Samples;Min_cycle;Max_cycle;Signal;HPM_P1;HPM_P2
2021/11/05 00:00:27;;;;;;;6.38;1.70;;;22.40;99.90;;;;;;5075079;28;20028;-71
2021/11/05 00:02:57;;;;;;;4.57;1.58;;;22.30;99.90;;;;;;5075044;28;20024;-69
2021/11/05 00:05:26;;;;;;;10.35;3.33;;;22.40;99.90;;;;;;5076029;28;20035;-72
2021/11/05 00:07:53;;;;;;;9.07;3.65;;;22.60;99.90;;;;;;5076383;28;20048;-68
2021/11/05 00:10:20;;;;;;;9.68;1.60;;;22.90;99.90;;;;;;5076425;28;20119;-69
2021/11/05 00:12:48;;;;;;;8.38;3.45;;;23.30;99.90;;;;;;5075322;28;20024;-72
2021/11/05 00:15:17;;;;;;;12.15;9.38;;;23.50;99.90;;;;;;5076372;28;20020;-69
2021/11/05 00:17:44;;;;;;;4.25;2.10;;;23.50;99.90;;;;;;5076955;28;20440;-69
2021/11/05 00:20:13;;;;;;;8.20;1.80;;;23.40;99.90;;;;;;5074380;28;20029;-71
2021/11/05 00:22:40;;;;;;;4.75;1.92;;;23.20;99.90;;;;;;5074973;28;20052;-69
2021/11/05 00:25:08;;;;;;;6.10;2.35;;;23.10;99.90;;;;;;5075917;28;20035;-68
2021/11/05 00:27:37;;;;;;;10.20;2.78;;;23.00;99.90;;;;;;5076158;28;20495;-69
2021/11/05 00:30:11;;;;;;;13.27;2.35;;;22.90;99.90;;;;;;5075542;28;20032;-68
2021/11/05 00:32:39;;;;;;;7.43;2.10;;;23.00;99.90;;;;;;5075988;28;20032;-68
2021/11/05 00:35:06;;;;;;;9.32;2.30;;;23.10;99.90;;;;;;5076775;28;20054;-70
2021/11/05 00:37:34;;;;;;;5.82;2.03;;;23.40;99.90;;;;;;5076337;28;20024;-69
2021/11/05 00:40:01;;;;;;;8.65;2.20;;;23.60;99.90;;;;;;5075868;28;20544;-70
2021/11/05 00:42:28;;;;;;;3.92;1.52;;;23.40;99.90;;;;;;5075845;28;20024;-73
2021/11/05 00:44:55;;;;;;;9.05;2.53;;;23.20;99.90;;;;;;5075950;28;20494;-68
2021/11/05 00:47:22;;;;;;;8.90;2.38;;;23.00;99.90;;;;;;5075994;28;20034;-70
2021/11/05 00:49:50;;;;;;;8.10;2.55;;;23.00;99.90;;;;;;5075637;28;20475;-73
2021/11/05 00:52:17;;;;;;;6.68;4.28;;;22.80;99.90;;;;;;5073683;28;20036;-67
2021/11/05 00:54:44;;;;;;;4.70;1.83;;;22.70;99.90;;;;;;5074030;28;20677;-73
2021/11/05 00:57:11;;;;;;;6.10;2.13;;;22.70;99.90;;;;;;5075568;28;21034;-70
2021/11/05 00:59:40;;;;;;;6.65;2.13;;;22.50;99.90;;;;;;5075030;28;20038;-68
2021/11/05 01:02:09;;;;;;;4.57;1.50;;;22.50;99.90;;;;;;5074135;28;20484;-69
2021/11/05 01:04:36;;;;;;;4.68;2.42;;;22.30;99.90;;;;;;5075072;28;20478;-73
2021/11/05 01:07:03;;;;;;;18.85;14.52;;;22.50;99.90;;;;;;5073557;28;20226;-70
2021/11/05 01:09:30;;;;;;;4.57;2.53;;;22.80;99.90;;;;;;5075668;28;20141;-69
2021/11/05 01:11:57;;;;;;;4.95;1.92;;;23.10;99.90;;;;;;5074839;28;20035;-69
2021/11/05 01:14:25;;;;;;;7.78;2.10;;;23.30;99.90;;;;;;5073996;28;20036;-74
2021/11/05 01:16:52;;;;;;;5.20;2.95;;;23.60;99.90;;;;;;5076149;28;20028;-74
2021/11/05 01:19:19;;;;;;;4.07;2.03;;;24.10;99.90;;;;;;5074430;28;20012;-67
2021/11/05 01:21:46;;;;;;;3.95;1.75;;;24.40;99.90;;;;;;5075439;28;20103;-68
2021/11/05 01:24:14;;;;;;;3.22;1.33;;;24.50;99.90;;;;;;5079591;28;20491;-69
2021/11/05 01:26:41;;;;;;;3.95;2.20;;;24.70;99.90;;;;;;5078838;28;20024;-70
2021/11/05 01:29:08;;;;;;;3.88;1.08;;;24.80;99.50;;;;;;5077361;28;20672;-72
2021/11/05 01:31:35;;;;;;;4.85;1.48;;;24.90;99.10;;;;;;5059196;28;20119;-72
2021/11/05 01:34:04;;;;;;;3.92;1.25;;;24.90;99.40;;;;;;5078490;28;20028;-69
2021/11/05 01:36:31;;;;;;;3.38;1.08;;;25.00;99.20;;;;;;5078506;28;20074;-69
2021/11/05 01:38:58;;;;;;;3.50;0.80;;;25.10;98.30;;;;;;5078488;28;20478;-72
2021/11/05 01:41:25;;;;;;;3.10;1.15;;;25.10;99.50;;;;;;5078931;28;20561;-73
2021/11/05 01:43:52;;;;;;;2.65;1.02;;;25.20;99.40;;;;;;5079829;28;20016;-70
2021/11/05 01:46:21;;;;;;;6.13;2.60;;;25.60;97.50;;;;;;5078665;28;20024;-69
2021/11/05 01:48:48;;;;;;;5.80;4.43;;;25.90;97.40;;;;;;5079263;28;20044;-73
2021/11/05 01:51:16;;;;;;;6.68;1.60;;;25.90;96.50;;;;;;5078700;28;20020;-69
2021/11/05 01:53:46;;;;;;;4.63;0.77;;;25.90;95.20;;;;;;5078858;28;20032;-72
2021/11/05 01:56:14;;;;;;;3.00;0.90;;;25.90;94.50;;;;;;5079308;28;20024;-68
2021/11/05 01:58:41;;;;;;;3.70;1.05;;;26.10;93.80;;;;;;5078273;28;20021;-72
2021/11/05 02:01:09;;;;;;;2.65;1.15;;;26.20;93.80;;;;;;5078297;28;20020;-72
2021/11/05 02:03:36;;;;;;;2.40;1.02;;;26.60;94.40;;;;;;5079416;28;20023;-71
2021/11/05 02:06:04;;;;;;;4.57;1.42;;;26.90;93.40;;;;;;5078676;28;20028;-69
2021/11/05 02:08:33;;;;;;;4.00;1.52;;;26.90;90.50;;;;;;5079051;28;20028;-72
2021/11/05 02:11:05;;;;;;;4.82;2.88;;;26.80;92.00;;;;;;5078754;28;20885;-72
2021/11/05 02:13:34;;;;;;;2.53;1.15;;;26.80;92.60;;;;;;5079121;28;20028;-69
2021/11/05 02:16:02;;;;;;;3.75;1.17;;;27.00;92.70;;;;;;5060113;28;20041;-71
2021/11/05 02:18:30;;;;;;;7.15;1.70;;;26.90;92.00;;;;;;5083358;28;20064;-70
2021/11/05 02:20:58;;;;;;;2.97;1.10;;;26.80;91.80;;;;;;5078307;28;20020;-71
2021/11/05 02:23:26;;;;;;;7.43;3.47;;;26.70;91.20;;;;;;5080439;28;20040;-69
2021/11/05 02:25:53;;;;;;;5.45;1.30;;;26.80;90.80;;;;;;5079872;28;20027;-71
2021/11/05 02:28:21;;;;;;;2.45;1.13;;;26.60;92.20;;;;;;5058573;28;20406;-70
2021/11/05 02:30:50;;;;;;;3.30;1.08;;;26.20;91.60;;;;;;5076097;28;20028;-70
2021/11/05 02:33:18;;;;;;;3.15;0.93;;;25.90;92.80;;;;;;5076452;28;20027;-73
2021/11/05 02:35:45;;;;;;;2.72;0.82;;;25.40;93.60;;;;;;5077367;28;20028;-72
2021/11/05 02:38:13;;;;;;;5.53;1.33;;;25.20;95.40;;;;;;5073018;28;20031;-70
2021/11/05 02:40:40;;;;;;;4.18;1.05;;;25.10;95.00;;;;;;5075983;28;20028;-72
2021/11/05 02:43:07;;;;;;;2.70;1.00;;;24.60;97.30;;;;;;5076103;28;20164;-69
2021/11/05 02:45:35;;;;;;;4.22;1.48;;;24.50;97.50;;;;;;4374038;28;9999924;-69
2021/11/05 02:48:03;;;;;;;3.53;0.95;;;24.30;97.90;;;;;;5070905;28;20027;-70
2021/11/05 02:50:30;;;;;;;3.45;0.80;;;24.30;97.50;;;;;;5054686;28;20990;-70
2021/11/05 02:52:57;;;;;;;4.53;1.00;;;24.30;96.60;;;;;;5072568;28;20036;-70
2021/11/05 02:55:24;;;;;;;5.60;1.27;;;24.20;96.90;;;;;;5071173;28;20453;-69
2021/11/05 02:57:51;;;;;;;4.13;0.93;;;24.10;95.80;;;;;;5072045;28;20033;-70
2021/11/05 03:00:18;;;;;;;5.35;1.35;;;24.10;96.30;;;;;;5072871;28;20024;-71
2021/11/05 03:02:45;;;;;;;1.80;0.68;;;24.00;95.90;;;;;;5054551;28;20024;-72
2021/11/05 03:05:13;;;;;;;2.65;1.10;;;24.00;96.90;;;;;;5072743;28;20433;-71
2021/11/05 03:07:41;;;;;;;3.38;1.10;;;24.10;96.80;;;;;;5072439;28;20078;-70
2021/11/05 03:10:09;;;;;;;3.58;1.00;;;24.20;97.10;;;;;;5072332;28;20031;-69
2021/11/05 03:12:37;;;;;;;1.83;1.00;;;24.20;95.00;;;;;;5071618;28;20028;-70
2021/11/05 03:15:04;;;;;;;3.03;0.90;;;24.20;95.70;;;;;;5072761;28;20129;-69
2021/11/05 03:17:32;;;;;;;2.67;0.93;;;24.50;97.00;;;;;;5072409;28;20525;-73
2021/11/05 03:19:59;;;;;;;4.18;1.00;;;24.60;95.20;;;;;;5071350;28;20036;-71
2021/11/05 03:22:26;;;;;;;4.75;1.55;;;24.60;94.70;;;;;;5071015;28;20021;-71
2021/11/05 03:24:53;;;;;;;6.60;3.85;;;24.90;94.30;;;;;;5055077;28;20028;-71
2021/11/05 03:27:20;;;;;;;4.00;1.48;;;25.20;94.50;;;;;;5072318;28;20031;-71
2021/11/05 03:29:47;;;;;;;4.10;0.88;;;25.50;94.50;;;;;;5071326;28;20029;-69
2021/11/05 03:32:15;;;;;;;1.13;0.50;;;25.70;93.00;;;;;;5054025;28;20062;-70
2021/11/05 03:34:42;;;;;;;6.03;1.30;;;25.90;91.30;;;;;;5055455;28;20066;-68
2021/11/05 03:37:09;;;;;;;3.05;1.00;;;25.80;91.90;;;;;;5073795;28;20033;-74
2021/11/05 03:39:36;;;;;;;4.13;0.70;;;26.00;92.20;;;;;;5072973;28;20050;-74
2021/11/05 03:42:03;;;;;;;3.83;0.90;;;26.20;91.10;;;;;;5074041;28;20025;-68
2021/11/05 03:44:31;;;;;;;5.07;0.93;;;25.90;89.00;;;;;;5071431;28;20487;-68
2021/11/05 03:46:59;;;;;;;1.30;0.60;;;25.90;90.90;;;;;;5071167;28;20570;-68
2021/11/05 03:49:29;;;;;;;2.88;0.73;;;26.00;90.40;;;;;;5072038;28;20023;-74
2021/11/05 03:51:57;;;;;;;3.53;1.13;;;26.00;90.00;;;;;;5069926;28;20569;-75
2021/11/05 03:54:25;;;;;;;2.08;0.90;;;26.00;86.80;;;;;;5070582;28;20045;-68
2021/11/05 03:56:52;;;;;;;2.20;0.77;;;26.10;89.40;;;;;;5070113;28;20059;-73
2021/11/05 03:59:19;;;;;;;4.35;0.90;;;26.30;88.80;;;;;;5069692;28;20579;-75
2021/11/05 04:01:45;;;;;;;1.83;0.65;;;26.60;86.40;;;;;;5070382;28;20102;-69
2021/11/05 04:04:13;;;;;;;2.10;1.00;;;26.30;87.90;;;;;;5070075;28;20108;-73
2021/11/05 04:06:40;;;;;;;2.58;0.60;;;26.20;79.60;;;;;;5069867;28;20494;-74
2021/11/05 04:09:07;;;;;;;1.17;0.65;;;26.20;81.40;;;;;;5070650;28;20020;-72
2021/11/05 04:11:34;;;;;;;2.00;0.70;;;26.10;80.30;;;;;;5070448;28;20039;-69
2021/11/05 04:14:01;;;;;;;2.50;1.05;;;26.00;82.50;;;;;;5069902;28;20031;-67
2021/11/05 04:16:28;;;;;;;1.88;0.82;;;26.00;82.30;;;;;;5070720;28;20027;-70
2021/11/05 04:18:55;;;;;;;3.90;1.45;;;26.00;86.20;;;;;;5071299;28;20040;-69
2021/11/05 04:21:22;;;;;;;3.95;2.00;;;25.90;86.80;;;;;;5068375;28;20058;-75
2021/11/05 04:23:49;;;;;;;3.65;0.85;;;25.80;87.70;;;;;;5051407;28;20060;-68
2021/11/05 04:26:16;;;;;;;4.88;0.90;;;25.60;86.50;;;;;;5070996;28;20387;-73
2021/11/05 04:28:43;;;;;;;4.38;0.85;;;25.20;89.40;;;;;;5070590;28;20359;-68
2021/11/05 04:31:10;;;;;;;2.67;1.15;;;24.90;89.60;;;;;;5070325;28;20127;-68
2021/11/05 04:33:38;;;;;;;2.42;0.70;;;24.90;91.40;;;;;;5070866;28;20031;-75
2021/11/05 04:36:07;;;;;;;2.40;0.80;;;25.00;90.90;;;;;;5071354;28;20256;-76
2021/11/05 04:38:34;;;;;;;1.48;0.65;;;25.00;91.40;;;;;;5068375;28;20039;-68
2021/11/05 04:41:01;;;;;;;2.67;0.65;;;24.90;91.90;;;;;;5071434;28;20492;-73
2021/11/05 04:43:28;;;;;;;3.08;0.95;;;24.80;92.00;;;;;;5070571;28;20030;-68
2021/11/05 04:45:56;;;;;;;2.58;0.68;;;24.70;92.80;;;;;;5070468;28;20063;-68
2021/11/05 04:48:23;;;;;;;2.45;1.00;;;24.60;92.80;;;;;;5053185;28;20412;-73
2021/11/05 04:50:50;;;;;;;2.97;1.00;;;24.40;93.60;;;;;;5070822;28;20024;-74
2021/11/05 04:53:17;;;;;;;3.65;0.80;;;24.20;94.50;;;;;;5070217;28;20059;-68
2021/11/05 04:55:44;;;;;;;2.95;0.70;;;24.00;95.50;;;;;;5070943;28;20032;-67
2021/11/05 04:58:11;;;;;;;4.10;1.20;;;23.70;96.40;;;;;;5072995;28;20867;-72
2021/11/05 05:00:38;;;;;;;3.65;0.88;;;23.50;96.70;;;;;;5073207;28;20806;-76
2021/11/05 05:03:05;;;;;;;5.45;2.90;;;23.40;97.60;;;;;;5075031;28;20022;-68
2021/11/05 05:05:32;;;;;;;7.57;1.23;;;23.30;98.30;;;;;;5074350;28;20036;-68
2021/11/05 05:07:59;;;;;;;1.60;0.88;;;23.40;97.90;;;;;;5072625;28;20027;-69
2021/11/05 05:10:28;;;;;;;3.78;1.38;;;23.20;97.90;;;;;;5073425;28;20040;-73
2021/11/05 05:12:56;;;;;;;6.85;3.55;;;23.20;98.80;;;;;;5074413;28;20024;-68
2021/11/05 05:15:24;;;;;;;4.63;1.17;;;23.10;99.90;;;;;;5073010;28;20054;-75
2021/11/05 05:17:51;;;;;;;7.38;2.63;;;23.10;99.00;;;;;;5073988;28;20101;-77
2021/11/05 05:20:19;;;;;;;3.60;1.00;;;23.10;99.90;;;;;;5076530;28;20024;-76
2021/11/05 05:22:47;;;;;;;3.88;0.95;;;23.00;99.40;;;;;;5074430;28;20498;-68
2021/11/05 05:25:16;;;;;;;2.85;0.98;;;22.80;99.90;;;;;;5075554;28;20024;-73
2021/11/05 05:27:45;;;;;;;4.25;0.93;;;22.80;99.40;;;;;;5058288;28;20056;-74
2021/11/05 05:30:13;;;;;;;3.33;1.73;;;22.70;99.80;;;;;;5076294;28;20759;-75
2021/11/05 05:32:42;;;;;;;6.68;2.42;;;22.70;99.60;;;;;;5075840;28;20486;-74
2021/11/05 05:35:10;;;;;;;4.35;2.40;;;22.60;99.90;;;;;;5075904;28;20044;-68
2021/11/05 05:37:37;;;;;;;2.60;1.67;;;22.30;99.90;;;;;;5076099;28;20055;-74
2021/11/05 05:40:06;;;;;;;4.72;2.05;;;22.00;99.90;;;;;;5075065;28;20020;-74
2021/11/05 05:42:33;;;;;;;6.60;1.70;;;21.90;99.90;;;;;;5075728;28;20026;-75
2021/11/05 05:45:00;;;;;;;5.30;1.70;;;21.80;99.90;;;;;;5075698;28;20508;-75
2021/11/05 05:47:27;;;;;;;2.15;1.13;;;21.60;99.90;;;;;;5076582;28;20101;-75
2021/11/05 05:49:54;;;;;;;6.57;1.42;;;21.40;99.90;;;;;;5075781;28;20033;-68
2021/11/05 05:52:21;;;;;;;3.10;0.82;;;21.30;99.90;;;;;;5075571;28;20119;-75
2021/11/05 05:54:48;;;;;;;2.90;1.50;;;21.20;99.90;;;;;;5075371;28;20050;-69
2021/11/05 05:57:15;;;;;;;1.42;1.02;;;21.10;99.90;;;;;;5055810;28;21022;-68
2021/11/05 05:59:42;;;;;;;3.13;1.48;;;21.10;99.90;;;;;;5057243;28;20033;-68
2021/11/05 06:02:09;;;;;;;2.60;1.27;;;21.10;99.90;;;;;;5074000;28;20043;-74
2021/11/05 06:04:37;;;;;;;3.15;1.10;;;21.10;99.90;;;;;;5056273;28;20410;-68
2021/11/05 06:07:04;;;;;;;3.70;1.40;;;21.10;99.90;;;;;;5072944;28;20070;-68
2021/11/05 06:09:31;;;;;;;3.47;1.33;;;21.30;99.90;;;;;;5053708;28;20035;-73
2021/11/05 06:11:58;;;;;;;5.70;1.88;;;21.30;99.90;;;;;;5073323;28;20034;-73
2021/11/05 06:14:26;;;;;;;3.47;1.65;;;21.30;99.90;;;;;;5071935;28;20060;-74
2021/11/05 06:16:53;;;;;;;4.07;1.60;;;21.40;99.90;;;;;;5072955;28;20044;-74
2021/11/05 06:19:20;;;;;;;4.65;1.27;;;21.30;99.90;;;;;;5070275;28;20099;-75
2021/11/05 06:21:47;;;;;;;5.10;1.60;;;21.50;99.90;;;;;;5070392;28;20027;-75
2021/11/05 06:24:14;;;;;;;4.03;2.88;;;21.70;99.90;;;;;;5072433;28;20433;-70
2021/11/05 06:26:41;;;;;;;6.68;3.92;;;21.80;99.90;;;;;;5052856;28;20036;-68
2021/11/05 06:29:08;;;;;;;3.10;2.13;;;21.90;99.90;;;;;;5072772;28;20093;-75
2021/11/05 06:31:35;;;;;;;6.22;3.10;;;22.00;99.90;;;;;;5073244;28;20035;-73
2021/11/05 06:34:04;;;;;;;4.13;1.83;;;22.00;99.90;;;;;;5071595;28;20040;-76
2021/11/05 06:36:32;;;;;;;8.52;1.88;;;22.00;99.90;;;;;;5072696;28;20036;-75
2021/11/05 06:39:00;;;;;;;4.32;1.52;;;22.00;99.90;;;;;;5070032;28;20024;-74
2021/11/05 06:41:27;;;;;;;3.80;1.25;;;22.00;99.90;;;;;;5072338;28;20099;-75
2021/11/05 06:43:54;;;;;;;5.90;3.03;;;22.10;99.90;;;;;;5072749;28;20024;-72
2021/11/05 06:46:22;;;;;;;7.50;4.60;;;22.20;99.90;;;;;;5070868;28;20036;-72
2021/11/05 06:48:49;;;;;;;2.85;1.70;;;22.20;99.90;;;;;;5071524;28;20028;-71
2021/11/05 06:51:16;;;;;;;4.00;1.98;;;22.20;99.90;;;;;;5072273;28;20446;-70
2021/11/05 06:53:44;;;;;;;3.78;1.35;;;22.10;99.90;;;;;;5086115;22;20149;-72
2021/11/05 06:56:12;;;;;;;3.55;1.92;;;22.00;99.90;;;;;;5092848;28;20104;-69
2021/11/05 06:58:41;;;;;;;2.58;1.45;;;21.90;99.90;;;;;;5090957;28;20038;-71
2021/11/05 07:01:10;;;;;;;6.93;1.50;;;21.90;99.90;;;;;;5092605;28;20106;-67
2021/11/05 07:03:38;;;;;;;5.90;1.40;;;21.90;99.90;;;;;;5089138;28;20031;-71
2021/11/05 07:06:10;;;;;;;3.70;1.65;;;21.70;99.90;;;;;;5067507;28;20064;-71
2021/11/05 07:08:37;;;;;;;4.93;1.50;;;21.60;99.90;;;;;;5092850;28;20485;-75
2021/11/05 07:11:04;;;;;;;4.07;2.22;;;21.50;99.90;;;;;;5065074;28;20649;-78
2021/11/05 07:13:31;;;;;;;4.10;1.38;;;21.40;99.90;;;;;;5091511;28;20025;-68
2021/11/05 07:15:58;;;;;;;3.75;1.58;;;21.40;99.90;;;;;;5091415;28;20032;-70
2021/11/05 07:18:25;;;;;;;3.13;1.10;;;21.30;99.90;;;;;;5092257;28;20320;-72
2021/11/05 07:20:52;;;;;;;2.50;1.42;;;21.30;99.90;;;;;;5092866;28;20016;-78
2021/11/05 07:23:20;;;;;;;4.38;1.42;;;21.20;99.90;;;;;;5091877;28;20027;-77
2021/11/05 07:25:47;;;;;;;5.10;1.88;;;21.10;99.90;;;;;;5092191;28;20421;-78
2021/11/05 07:28:14;;;;;;;2.92;1.15;;;21.10;99.90;;;;;;5091948;28;20393;-72
2021/11/05 07:30:41;;;;;;;3.60;1.50;;;21.10;99.90;;;;;;5093947;28;20967;-78
2021/11/05 07:33:08;;;;;;;4.90;1.50;;;21.10;99.90;;;;;;5091537;28;20495;-77
2021/11/05 07:35:35;;;;;;;2.15;1.13;;;21.10;99.90;;;;;;5091426;28;20692;-71
2021/11/05 07:38:02;;;;;;;2.22;1.30;;;21.10;99.90;;;;;;5090468;28;20326;-71
2021/11/05 07:40:31;;;;;;;3.10;1.30;;;21.10;99.90;;;;;;5089249;28;20109;-69
2021/11/05 07:42:59;;;;;;;3.38;1.52;;;21.20;99.90;;;;;;5062700;28;20031;-71
2021/11/05 07:45:26;;;;;;;4.47;0.93;;;21.20;99.90;;;;;;5089936;28;20019;-70
2021/11/05 07:47:56;;;;;;;4.15;1.20;;;21.10;99.90;;;;;;5091540;28;20315;-68
2021/11/05 07:50:26;;;;;;;3.17;1.20;;;21.10;99.90;;;;;;5089641;28;20035;-76
2021/11/05 07:52:53;;;;;;;4.72;1.02;;;21.10;99.90;;;;;;5090332;28;20443;-72
2021/11/05 07:55:21;;;;;;;5.68;1.40;;;21.20;99.90;;;;;;5088344;28;20501;-73
2021/11/05 07:57:48;;;;;;;4.68;0.98;;;21.10;99.90;;;;;;5091578;28;20025;-68
2021/11/05 08:00:15;;;;;;;4.85;1.27;;;21.10;99.90;;;;;;5088341;28;20028;-73
2021/11/05 08:02:43;;;;;;;5.15;1.08;;;21.00;99.90;;;;;;5089036;28;20034;-70
2021/11/05 08:05:11;;;;;;;5.85;1.48;;;21.00;99.90;;;;;;5063550;28;20397;-69
2021/11/05 08:07:39;;;;;;;2.47;0.88;;;20.90;99.90;;;;;;5087686;28;20034;-68
2021/11/05 08:10:08;;;;;;;8.40;1.33;;;20.80;99.90;;;;;;5087965;28;20039;-70
2021/11/05 08:12:35;;;;;;;5.93;1.73;;;20.80;99.90;;;;;;5088602;28;20525;-76
2021/11/05 08:15:03;;;;;;;5.35;1.33;;;20.70;99.90;;;;;;5088270;28;20028;-68
2021/11/05 08:17:30;;;;;;;6.28;1.00;;;20.70;99.90;;;;;;5088141;28;20493;-69
2021/11/05 08:19:57;;;;;;;7.10;1.92;;;20.70;99.90;;;;;;5088567;28;20051;-68
2021/11/05 08:22:24;;;;;;;4.05;1.05;;;20.70;99.90;;;;;;5087928;28;20020;-68
2021/11/05 08:24:52;;;;;;;1.98;0.93;;;20.60;99.90;;;;;;5088721;28;20038;-75
2021/11/05 08:27:20;;;;;;;4.03;1.30;;;20.50;99.90;;;;;;5087376;28;20498;-70
2021/11/05 08:29:48;;;;;;;3.35;1.20;;;20.40;99.90;;;;;;5088437;28;20032;-75
2021/11/05 08:32:16;;;;;;;4.60;1.40;;;20.50;99.90;;;;;;5092292;28;20051;-76
2021/11/05 08:34:43;;;;;;;2.97;0.90;;;20.50;99.90;;;;;;5092524;28;20145;-68
2021/11/05 08:37:10;;;;;;;3.92;1.25;;;20.40;99.90;;;;;;5091824;28;20575;-67
2021/11/05 08:39:37;;;;;;;4.50;1.05;;;20.40;99.90;;;;;;5093204;28;20024;-77
2021/11/05 08:42:05;;;;;;;2.58;0.80;;;20.20;99.90;;;;;;5092605;28;20018;-72
2021/11/05 08:44:33;;;;;;;5.00;1.63;;;20.30;99.90;;;;;;5093027;28;20031;-76
2021/11/05 08:47:01;;;;;;;4.20;1.20;;;20.20;99.90;;;;;;5091681;28;20027;-67
2021/11/05 08:49:28;;;;;;;3.28;1.05;;;20.20;99.90;;;;;;5092350;28;20111;-76
2021/11/05 08:51:55;;;;;;;6.65;3.70;;;20.20;99.90;;;;;;5092133;28;20359;-75
2021/11/05 08:54:24;;;;;;;14.45;8.32;;;20.10;99.90;;;;;;5087146;28;20043;-67
2021/11/05 08:56:51;;;;;;;10.73;6.22;;;20.10;99.90;;;;;;5082718;28;20146;-71
2021/11/05 08:59:20;;;;;;;6.32;3.08;;;20.00;99.90;;;;;;5082122;28;20231;-67
2021/11/05 09:01:47;;;;;;;3.88;1.33;;;20.00;99.90;;;;;;5083075;28;20932;-70
2021/11/05 09:04:16;;;;;;;3.63;1.13;;;19.90;99.90;;;;;;5082833;28;20020;-68
2021/11/05 09:06:47;;;;;;;2.95;0.93;;;20.00;99.90;;;;;;5083343;28;20471;-78
2021/11/05 09:09:16;;;;;;;3.05;0.98;;;20.00;99.90;;;;;;5082491;28;20052;-68
2021/11/05 09:11:45;;;;;;;3.20;1.02;;;19.90;99.90;;;;;;5081978;28;20453;-68
2021/11/05 09:14:12;;;;;;;5.45;0.88;;;19.80;99.90;;;;;;5083097;28;20035;-70
2021/11/05 09:16:39;;;;;;;4.10;1.38;;;19.80;99.90;;;;;;5082158;28;20736;-71
2021/11/05 09:19:07;;;;;;;4.47;1.00;;;19.80;99.90;;;;;;5083391;28;20062;-74
2021/11/05 09:21:35;;;;;;;3.38;1.40;;;19.70;99.90;;;;;;5082077;28;20461;-69
2021/11/05 09:24:04;;;;;;;5.68;1.40;;;19.80;99.90;;;;;;5082263;28;20475;-67
2021/11/05 09:26:32;;;;;;;4.22;1.42;;;19.70;99.90;;;;;;5082050;28;20027;-72
2021/11/05 09:29:00;;;;;;;3.90;0.82;;;19.70;99.90;;;;;;5082932;28;20027;-67
2021/11/05 09:31:27;;;;;;;4.22;1.10;;;19.70;99.90;;;;;;5081393;28;20128;-67
2021/11/05 09:33:55;;;;;;;4.20;1.63;;;19.70;99.90;;;;;;5080785;28;20343;-74
2021/11/05 09:36:23;;;;;;;5.93;1.35;;;19.60;99.90;;;;;;5082371;28;20394;-68
2021/11/05 09:38:50;;;;;;;4.47;0.98;;;19.60;99.90;;;;;;5081689;28;20493;-75
2021/11/05 09:41:17;;;;;;;5.63;1.20;;;19.50;99.90;;;;;;5082446;28;20031;-67
2021/11/05 09:43:44;;;;;;;5.20;1.20;;;19.50;99.90;;;;;;5082025;28;20418;-68
2021/11/05 09:46:12;;;;;;;7.90;1.50;;;19.50;99.90;;;;;;5081478;28;20304;-70
2021/11/05 09:48:39;;;;;;;10.35;2.83;;;19.50;99.90;;;;;;5081992;28;20195;-68
2021/11/05 09:51:11;;;;;;;11.55;6.07;;;19.60;99.90;;;;;;5061769;28;20031;-68
2021/11/05 09:53:39;;;;;;;6.72;2.08;;;19.50;99.90;;;;;;5082519;28;20032;-73
2021/11/05 09:56:08;;;;;;;4.25;1.15;;;19.50;99.90;;;;;;5072559;28;20573;-69
2021/11/05 09:58:42;;;;;;;5.22;1.60;;;19.50;99.90;;;;;;5079371;28;20851;-67
2021/11/05 10:01:10;;;;;;;5.75;2.63;;;19.50;99.90;;;;;;5081606;28;20032;-68
2021/11/05 10:03:38;;;;;;;7.03;2.13;;;19.40;99.90;;;;;;5079867;28;20027;-74
2021/11/05 10:06:10;;;;;;;5.95;1.80;;;19.40;99.90;;;;;;5083570;28;20076;-68
2021/11/05 10:08:37;;;;;;;5.70;1.90;;;19.40;99.90;;;;;;5086139;28;20067;-68
2021/11/05 10:11:27;;;;;;;5.78;2.60;;;19.40;99.90;;;;;;5085203;28;20062;-74
2021/11/05 10:13:56;;;;;;;4.53;2.70;;;19.40;99.90;;;;;;5084391;28;20028;-69
2021/11/05 10:16:25;;;;;;;6.80;1.80;;;19.30;99.90;;;;;;5085261;28;20039;-68
2021/11/05 10:19:02;;;;;;;8.05;2.25;;;19.20;99.90;;;;;;5084868;28;20043;-75
2021/11/05 10:21:43;;;;;;;6.40;1.65;;;19.20;99.90;;;;;;5084413;28;20029;-74
2021/11/05 10:24:15;;;;;;;4.90;1.60;;;19.30;99.90;;;;;;5083932;28;20070;-71
2021/11/05 10:26:43;;;;;;;3.50;0.95;;;19.30;99.90;;;;;;5084052;28;20028;-67
2021/11/05 10:29:28;;;;;;;5.68;2.35;;;19.20;99.90;;;;;;5084247;28;20028;-72
2021/11/05 10:32:07;;;;;;;8.95;2.97;;;19.20;99.90;;;;;;5085025;28;20055;-75
2021/11/05 10:34:54;;;;;;;6.15;1.70;;;19.20;99.90;;;;;;5084535;28;20111;-68
2021/11/05 10:37:41;;;;;;;7.30;1.70;;;19.20;99.90;;;;;;5082200;28;20162;-68
2021/11/05 10:40:11;;;;;;;6.55;2.03;;;19.10;99.90;;;;;;5085970;28;20638;-73
2021/11/05 10:42:45;;;;;;;13.68;5.05;;;19.10;99.90;;;;;;5084516;28;20414;-68
2021/11/05 10:45:17;;;;;;;6.03;1.50;;;19.10;99.90;;;;;;5084826;28;20027;-77
2021/11/05 10:48:03;;;;;;;10.67;4.50;;;19.10;99.90;;;;;;5083441;28;20062;-75
2021/11/05 10:50:38;;;;;;;8.40;3.08;;;19.10;99.90;;;;;;5083328;28;20317;-72
2021/11/05 10:53:10;;;;;;;6.68;1.77;;;19.00;99.90;;;;;;5064356;28;20055;-75
2021/11/05 10:55:55;;;;;;;5.05;1.35;;;19.00;99.90;;;;;;5083558;28;20031;-68
2021/11/05 10:58:33;;;;;;;3.67;1.42;;;19.00;99.90;;;;;;5083545;28;20060;-67
2021/11/05 11:01:21;;;;;;;4.18;1.35;;;19.00;99.90;;;;;;5084933;28;20032;-74
2021/11/05 11:03:49;;;;;;;2.90;1.17;;;18.90;99.90;;;;;;5083917;28;20028;-70
2021/11/05 11:06:20;;;;;;;4.97;1.75;;;18.90;99.90;;;;;;5085955;28;20105;-74
2021/11/05 11:08:50;;;;;;;5.22;1.85;;;18.90;99.90;;;;;;5084813;28;20102;-70
2021/11/05 11:11:22;;;;;;;4.95;1.70;;;18.90;99.90;;;;;;5084315;28;20028;-70
2021/11/05 11:14:01;;;;;;;4.95;1.50;;;18.80;99.90;;;;;;5084982;28;20034;-70
2021/11/05 11:16:34;;;;;;;5.85;1.30;;;18.90;99.90;;;;;;5084403;28;20032;-70
2021/11/05 11:19:11;;;;;;;4.90;1.58;;;18.90;99.90;;;;;;5084038;28;20042;-76
2021/11/05 11:21:40;;;;;;;2.28;0.90;;;19.00;99.90;;;;;;5083554;28;20027;-71
2021/11/05 11:24:09;;;;;;;6.72;1.10;;;19.00;99.90;;;;;;5084366;28;20038;-76
2021/11/05 11:26:38;;;;;;;3.13;1.00;;;19.10;99.90;;;;;;5083471;28;20107;-77
2021/11/05 11:29:07;;;;;;;3.78;1.73;;;19.10;99.90;;;;;;5083202;28;20073;-71
2021/11/05 11:31:36;;;;;;;4.90;1.10;;;19.10;99.90;;;;;;5062810;28;20081;-70
2021/11/05 11:34:08;;;;;;;4.55;1.17;;;19.00;99.90;;;;;;5080820;28;20024;-73
2021/11/05 11:36:41;;;;;;;2.85;1.10;;;19.10;99.90;;;;;;5083644;28;20020;-76
2021/11/05 11:39:12;;;;;;;6.28;1.35;;;19.10;99.90;;;;;;5083361;28;20190;-73
2021/11/05 11:41:40;;;;;;;7.60;1.42;;;19.10;99.90;;;;;;5082886;28;20035;-73
2021/11/05 11:44:09;;;;;;;7.13;1.35;;;19.00;99.90;;;;;;5083446;28;20023;-73
2021/11/05 11:46:55;;;;;;;4.35;1.10;;;19.10;99.90;;;;;;5082743;28;20017;-73
2021/11/05 11:49:47;;;;;;;4.55;1.05;;;19.20;99.90;;;;;;5063852;28;20425;-72
2021/11/05 11:52:21;;;;;;;3.83;1.10;;;19.00;99.90;;;;;;5074112;28;20398;-73
2021/11/05 11:54:50;;;;;;;4.00;1.20;;;18.90;99.90;;;;;;5089825;28;20056;-71
2021/11/05 11:57:23;;;;;;;5.97;0.95;;;18.90;99.90;;;;;;5071585;28;20020;-74
2021/11/05 12:00:10;;;;;;;7.75;1.25;;;19.00;99.90;;;;;;5071974;28;20016;-72
2021/11/05 12:02:46;;;;;;;4.32;1.05;;;18.90;99.90;;;;;;5072448;28;20027;-78
2021/11/05 12:05:20;;;;;;;4.57;1.23;;;19.00;99.90;;;;;;5058933;28;20048;-74
2021/11/05 12:08:12;;;;;;;5.95;1.52;;;18.90;99.90;;;;;;5061302;28;20036;-73
2021/11/05 12:10:40;;;;;;;2.92;1.38;;;19.00;99.90;;;;;;5059104;28;20032;-76
2021/11/05 12:13:35;;;;;;;6.28;0.98;;;18.90;99.90;;;;;;5072150;28;20488;-71
2021/11/05 12:16:21;;;;;;;2.80;1.20;;;18.80;99.90;;;;;;5072685;28;20187;-70
2021/11/05 12:21:30;;;;;;;3.58;1.33;;;18.80;99.90;;;;;;5071759;28;20183;-78
2021/11/05 12:24:24;;;;;;;2.47;1.15;;;18.70;99.90;;;;;;5071896;28;20021;-72
2021/11/05 12:27:10;;;;;;;7.35;1.48;;;18.70;99.90;;;;;;5071470;28;20046;-72
2021/11/05 12:29:37;;;;;;;3.55;1.08;;;18.60;99.90;;;;;;5071968;28;20025;-72
2021/11/05 12:32:23;;;;;;;6.60;1.75;;;18.60;99.90;;;;;;5071864;28;20539;-73
2021/11/05 12:34:52;;;;;;;4.43;1.00;;;18.50;99.90;;;;;;5074964;28;20107;-70
2021/11/05 12:37:39;;;;;;;5.05;1.20;;;18.50;99.90;;;;;;5073827;28;20016;-72
2021/11/05 12:40:27;;;;;;;2.97;1.15;;;18.60;99.90;;;;;;5074584;28;20027;-75
2021/11/05 12:43:00;;;;;;;3.50;1.20;;;18.60;99.90;;;;;;5075051;28;20436;-71
2021/11/05 12:45:53;;;;;;;6.25;1.67;;;18.50;99.90;;;;;;5074739;28;20024;-75
2021/11/05 12:48:40;;;;;;;3.08;1.15;;;18.50;99.90;;;;;;5075214;28;20028;-76
2021/11/05 12:51:14;;;;;;;5.53;1.27;;;18.50;99.90;;;;;;5062814;28;20092;-74
2021/11/05 12:53:44;;;;;;;5.30;1.48;;;18.50;99.90;;;;;;5066606;28;20458;-72
2021/11/05 12:56:22;;;;;;;4.30;1.40;;;18.40;99.90;;;;;;5094243;28;20110;-74
2021/11/05 12:58:49;;;;;;;6.90;1.73;;;18.40;99.90;;;;;;5094992;28;20475;-74